createdAt,value
2019-05-29T00:00:02.730Z,45.78
2019-05-29T00:02:37.231Z,45.92
2019-05-29T00:05:10.779Z,45.89
2019-05-29T00:07:43.908Z,46.02
2019-05-29T00:10:18.349Z,46.08
2019-05-29T00:12:51.307Z,46.19
2019-05-29T00:15:25.977Z,46.16
2019-05-29T00:17:59.349Z,46.11
2019-05-29T00:20:32.669Z,46.15
2019-05-29T00:23:06.447Z,46.37
2019-05-29T00:25:39.733Z,46.44
2019-05-29T00:28:13.038Z,46.37
2019-05-29T00:30:46.370Z,46.43
2019-05-29T00:33:19.825Z,46.52
2019-05-29T00:35:53.347Z,46.51
2019-05-29T00:38:26.724Z,46.57
2019-05-29T00:41:00.049Z,46.43
2019-05-29T00:43:33.328Z,46.57
2019-05-29T00:46:07.311Z,46.46
2019-05-29T00:48:40.049Z,46.30
2019-05-29T00:51:13.346Z,46.34
2019-05-29T00:53:46.604Z,46.48
2019-05-29T00:56:19.964Z,46.59
2019-05-29T00:58:53.568Z,46.76
2019-05-29T01:01:26.922Z,46.76
2019-05-29T01:04:00.202Z,46.73
2019-05-29T01:06:33.534Z,46.55
2019-05-29T01:09:08.014Z,46.56
2019-05-29T01:11:41.441Z,46.54
2019-05-29T01:14:15.136Z,46.49
2019-05-29T01:16:48.420Z,46.66
2019-05-29T01:19:27.668Z,46.55
2019-05-29T01:22:00.974Z,46.60
2019-05-29T01:24:34.455Z,46.56
2019-05-29T01:27:07.774Z,46.65
2019-05-29T01:29:41.043Z,46.81
2019-05-29T01:32:15.495Z,47.04
2019-05-29T01:34:48.390Z,47.14
2019-05-29T01:37:22.257Z,47.26
2019-05-29T01:39:55.182Z,47.26
2019-05-29T01:42:28.422Z,47.24
2019-05-29T01:45:07.620Z,47.44
2019-05-29T01:47:36.273Z,47.47
2019-05-29T01:50:09.542Z,47.53
2019-05-29T01:52:43.077Z,47.77
2019-05-29T01:55:17.600Z,47.81
2019-05-29T01:57:50.516Z,47.93
2019-05-29T02:00:24.257Z,48.03
2019-05-29T02:02:57.601Z,48.23
2019-05-29T02:05:30.910Z,48.34
2019-05-29T02:08:03.989Z,48.88
2019-05-29T02:10:37.228Z,49.31
2019-05-29T02:13:10.556Z,49.67
2019-05-29T02:15:43.823Z,49.74
2019-05-29T02:18:17.173Z,49.95
2019-05-29T02:20:50.416Z,50.29
2019-05-29T02:23:24.217Z,50.44
2019-05-29T02:25:57.309Z,50.74
2019-05-29T02:28:30.739Z,50.72
2019-05-29T02:31:04.019Z,50.63
2019-05-29T02:33:37.350Z,50.54
2019-05-29T02:36:10.711Z,50.66
2019-05-29T02:38:44.034Z,50.78
2019-05-29T02:41:19.110Z,50.83
2019-05-29T02:43:52.579Z,50.93
2019-05-29T02:46:26.541Z,50.88
2019-05-29T02:49:00.370Z,50.82
2019-05-29T02:51:33.648Z,50.60
2019-05-29T02:54:07.237Z,50.68
2019-05-29T02:56:42.665Z,50.67
2019-05-29T02:59:15.604Z,50.73
2019-05-29T03:01:48.875Z,50.81
2019-05-29T03:04:23.863Z,51.11
2019-05-29T03:06:56.762Z,51.45
2019-05-29T03:09:30.821Z,51.36
2019-05-29T03:12:03.736Z,51.65
2019-05-29T03:14:37.023Z,51.60
2019-05-29T03:17:10.283Z,51.18
2019-05-29T03:19:43.608Z,51.37
2019-05-29T03:22:16.987Z,51.51
2019-05-29T03:24:50.321Z,51.26
2019-05-29T03:27:23.669Z,51.31
2019-05-29T03:29:56.998Z,51.40
2019-05-29T03:32:39.098Z,51.05
2019-05-29T03:35:07.383Z,51.01
2019-05-29T03:37:40.037Z,51.01
2019-05-29T03:40:13.419Z,50.75
2019-05-29T03:42:46.822Z,50.30
2019-05-29T03:45:20.252Z,49.82
2019-05-29T03:47:53.610Z,49.54
2019-05-29T03:50:28.902Z,49.26
2019-05-29T03:53:01.375Z,48.53
2019-05-29T03:55:35.937Z,47.57
2019-05-29T03:58:08.939Z,47.13
2019-05-29T04:00:46.411Z,47.52
2019-05-29T04:03:16.494Z,47.40
2019-05-29T04:05:49.830Z,47.41
2019-05-29T04:08:22.946Z,47.52
2019-05-29T04:10:56.482Z,47.12
2019-05-29T04:13:31.699Z,47.20
2019-05-29T04:16:04.202Z,46.97
2019-05-29T04:18:38.101Z,46.71
2019-05-29T04:21:11.992Z,46.50
2019-05-29T04:23:44.866Z,46.60
2019-05-29T04:26:18.290Z,46.97
2019-05-29T04:28:51.660Z,47.12
2019-05-29T04:31:25.086Z,47.46
2019-05-29T04:33:58.275Z,48.25
2019-05-29T04:36:32.912Z,48.91
2019-05-29T04:39:07.809Z,49.12
2019-05-29T04:41:40.634Z,49.22
2019-05-29T04:44:14.000Z,48.87
2019-05-29T04:46:47.329Z,48.58
2019-05-29T04:49:20.579Z,48.44
2019-05-29T04:51:53.920Z,48.07
2019-05-29T04:54:27.194Z,47.41
2019-05-29T04:57:00.557Z,46.39
2019-05-29T04:59:34.955Z,45.65
2019-05-29T05:02:07.847Z,44.85
2019-05-29T05:04:40.978Z,44.08
2019-05-29T05:07:14.336Z,43.92
2019-05-29T05:09:47.474Z,43.39
2019-05-29T05:12:20.862Z,43.27
2019-05-29T05:14:54.065Z,42.87
2019-05-29T05:17:27.504Z,42.83
2019-05-29T05:20:00.847Z,42.94
2019-05-29T05:22:34.378Z,43.01
2019-05-29T05:25:07.930Z,42.46
2019-05-29T05:27:41.296Z,42.56
2019-05-29T05:30:14.551Z,42.44
2019-05-29T05:32:47.871Z,42.18
2019-05-29T05:35:21.125Z,42.12
2019-05-29T05:37:54.456Z,41.85
2019-05-29T05:40:27.739Z,41.94
2019-05-29T05:43:01.262Z,42.28
2019-05-29T05:45:35.125Z,42.30
2019-05-29T05:48:08.418Z,42.28
2019-05-29T05:50:41.731Z,41.90
2019-05-29T05:53:15.066Z,41.56
2019-05-29T05:55:48.315Z,41.21
2019-05-29T05:58:21.688Z,41.38
2019-05-29T06:00:54.806Z,41.32
2019-05-29T06:03:28.160Z,41.37
2019-05-29T06:06:01.506Z,41.19
2019-05-29T06:08:36.083Z,40.49
2019-05-29T06:11:09.187Z,40.09
2019-05-29T06:13:42.804Z,38.89
2019-05-29T06:16:16.331Z,38.25
2019-05-29T06:18:49.646Z,36.90
2019-05-29T06:21:22.894Z,36.47
2019-05-29T06:23:56.234Z,36.55
2019-05-29T06:26:29.597Z,35.18
2019-05-29T06:29:03.049Z,33.60
2019-05-29T06:31:37.162Z,32.85
2019-05-29T10:37:48.850Z,37.47
2019-05-29T10:40:22.070Z,37.95
2019-05-29T10:42:56.245Z,38.35
2019-05-29T10:45:29.552Z,38.59
2019-05-29T10:48:02.872Z,38.24
2019-05-29T10:50:36.146Z,38.34
2019-05-29T10:53:09.489Z,38.76
2019-05-29T10:55:42.786Z,39.06
2019-05-29T10:58:16.042Z,39.44
2019-05-29T11:00:49.325Z,39.73
2019-05-29T11:03:22.872Z,39.99
2019-05-29T11:05:56.463Z,40.08
2019-05-29T11:08:30.449Z,40.17
2019-05-29T11:11:03.747Z,40.36
2019-05-29T11:13:37.076Z,40.03
2019-05-29T11:16:10.326Z,40.11
2019-05-29T11:18:43.659Z,39.49
2019-05-29T11:21:16.909Z,39.72
2019-05-29T11:23:50.242Z,40.06
2019-05-29T11:26:23.423Z,40.38
2019-05-29T11:28:56.936Z,40.20
2019-05-29T11:31:31.344Z,40.34
2019-05-29T11:34:04.652Z,40.39
2019-05-29T11:36:37.914Z,40.50
2019-05-29T11:39:11.570Z,40.41
2019-05-29T11:41:44.914Z,40.21
2019-05-29T11:44:18.250Z,40.43
2019-05-29T11:46:52.144Z,40.26
2019-05-29T11:49:25.408Z,40.59
2019-05-29T11:52:21.709Z,40.58
2019-05-29T11:54:33.094Z,40.39
2019-05-29T11:57:06.426Z,40.15
2019-05-29T11:59:39.747Z,40.13
2019-05-29T12:02:13.017Z,40.12
2019-05-29T12:04:46.383Z,39.71
2019-05-29T12:07:19.713Z,39.48
2019-05-29T12:09:53.326Z,38.29
2019-05-29T12:12:26.269Z,38.39
2019-05-29T12:15:09.851Z,39.13
2019-05-29T12:17:34.799Z,38.71
2019-05-29T12:20:26.483Z,38.48
2019-05-29T12:23:07.096Z,37.16
2019-05-29T12:25:17.854Z,37.30
2019-05-29T12:27:52.614Z,37.42
2019-05-29T12:30:25.541Z,37.50
2019-05-29T12:32:59.218Z,37.86
2019-05-29T12:35:32.666Z,37.83
2019-05-29T12:38:05.911Z,38.07
2019-05-29T12:40:39.240Z,38.36
2019-05-29T12:43:26.795Z,38.75
2019-05-29T12:45:47.092Z,38.90
2019-05-29T12:48:20.348Z,39.10
2019-05-29T12:50:54.130Z,39.25
2019-05-29T12:53:30.834Z,39.45
2019-05-29T12:56:02.659Z,39.52
2019-05-29T12:58:36.638Z,39.52
2019-05-29T13:01:10.776Z,39.74
2019-05-29T13:03:45.862Z,39.86
2019-05-29T13:06:19.038Z,40.22
2019-05-29T13:08:52.315Z,40.50
2019-05-29T13:11:25.643Z,40.45
2019-05-29T13:14:00.571Z,40.41
2019-05-29T13:16:34.101Z,40.08
2019-05-29T13:19:07.343Z,40.27
2019-05-29T13:21:40.676Z,40.09
2019-05-29T13:24:14.533Z,40.31
2019-05-29T13:26:48.079Z,40.59
2019-05-29T13:29:21.346Z,40.85
2019-05-29T13:31:57.075Z,41.04
2019-05-29T13:34:29.086Z,41.14
2019-05-29T13:37:04.755Z,41.26
2019-05-29T13:39:36.699Z,41.31
2019-05-29T13:42:12.092Z,41.42
2019-05-29T13:44:45.811Z,41.58
2019-05-29T13:47:19.009Z,41.80
2019-05-29T13:49:52.325Z,41.80
2019-05-29T13:52:25.634Z,42.00
2019-05-29T13:54:59.279Z,42.09
2019-05-29T13:57:32.749Z,42.16
2019-05-29T14:00:31.672Z,41.94
2019-05-29T14:02:45.440Z,41.24
2019-05-29T14:05:18.190Z,40.98
2019-05-29T14:07:51.563Z,40.75
2019-05-29T14:10:25.186Z,40.35
2019-05-29T14:12:58.914Z,40.03
2019-05-29T14:15:31.814Z,40.29
2019-05-29T14:18:06.852Z,40.16
2019-05-29T14:20:39.537Z,40.20
2019-05-29T14:23:13.079Z,40.03
2019-05-29T14:25:46.334Z,39.14
2019-05-29T14:28:19.670Z,38.66
2019-05-29T14:30:53.020Z,38.44
2019-05-29T14:33:26.360Z,38.34
2019-05-29T14:36:00.985Z,38.47
2019-05-29T14:38:34.078Z,38.74
2019-05-29T14:41:08.165Z,39.03
2019-05-29T14:43:42.996Z,39.07
2019-05-29T14:46:18.096Z,39.20
2019-05-29T14:48:51.378Z,39.35
2019-05-29T14:51:24.538Z,39.32
2019-05-29T14:53:57.955Z,39.43
2019-05-29T14:56:31.496Z,39.53
2019-05-29T14:59:05.648Z,39.73
2019-05-29T15:01:39.192Z,40.00
2019-05-29T15:04:14.521Z,40.06
2019-05-29T15:06:47.093Z,40.17
2019-05-29T15:09:20.466Z,40.25
2019-05-29T15:11:53.724Z,40.24
2019-05-29T15:14:27.062Z,40.40
2019-05-29T15:17:00.321Z,40.54
2019-05-29T15:19:33.739Z,40.70
2019-05-29T15:22:09.298Z,40.85
2019-05-29T15:24:59.228Z,40.98
2019-05-29T15:27:16.686Z,40.90
2019-05-29T15:29:50.190Z,40.98
2019-05-29T15:32:23.572Z,40.90
2019-05-29T15:34:57.826Z,40.81
2019-05-29T15:37:31.477Z,40.77
2019-05-29T15:40:09.035Z,40.78
2019-05-29T15:42:42.775Z,40.79
2019-05-29T15:45:15.982Z,40.74
2019-05-29T15:47:49.310Z,40.74
2019-05-29T15:50:22.622Z,40.75
2019-05-29T15:52:55.876Z,40.59
2019-05-29T15:55:34.389Z,40.50
2019-05-29T15:58:04.029Z,40.51
2019-05-29T16:00:37.331Z,40.57
2019-05-29T16:03:11.504Z,40.57
2019-05-29T16:05:44.788Z,40.62
2019-05-29T16:08:18.352Z,40.58
2019-05-29T16:10:51.830Z,40.66
2019-05-29T16:13:25.120Z,40.80
2019-05-29T16:15:58.557Z,41.05
2019-05-29T16:18:31.997Z,41.16
2019-05-29T16:21:05.773Z,41.25
2019-05-29T16:23:38.799Z,41.43
2019-05-29T16:26:13.093Z,41.52
2019-05-29T16:28:46.132Z,41.51
2019-05-29T16:31:19.446Z,41.52
2019-05-29T16:33:53.489Z,41.42
2019-05-29T16:36:26.644Z,41.34
2019-05-29T16:39:00.087Z,41.40
2019-05-29T16:41:33.436Z,41.44
2019-05-29T16:44:06.684Z,41.46
2019-05-29T16:46:40.540Z,41.45
2019-05-29T16:49:14.466Z,41.51
2019-05-29T16:51:47.338Z,41.58
2019-05-29T16:54:21.026Z,41.54
2019-05-29T16:56:54.546Z,41.59
2019-05-29T16:59:29.730Z,41.58
2019-05-29T17:02:04.416Z,41.57
2019-05-29T17:04:37.682Z,41.59
2019-05-29T17:07:11.114Z,41.44
2019-05-29T17:09:44.472Z,41.58
2019-05-29T17:12:18.408Z,41.71
2019-05-29T17:14:51.436Z,41.76
2019-05-29T17:17:24.790Z,41.84
2019-05-29T17:19:58.146Z,41.92
2019-05-29T17:22:31.772Z,42.09
2019-05-29T17:25:06.196Z,42.21
2019-05-29T17:27:40.450Z,42.41
2019-05-29T17:30:16.571Z,42.57
2019-05-29T17:32:49.560Z,42.67
2019-05-29T17:35:23.165Z,42.83
2019-05-29T17:37:56.230Z,43.20
2019-05-29T17:40:29.323Z,43.35
2019-05-29T17:43:02.673Z,43.58
2019-05-29T17:45:35.910Z,43.74
2019-05-29T17:48:09.275Z,43.85
2019-05-29T17:50:43.113Z,44.06
2019-05-29T17:53:17.815Z,44.08
2019-05-29T17:55:50.695Z,44.25
2019-05-29T17:58:25.049Z,44.48
2019-05-29T18:00:58.735Z,44.48
2019-05-29T18:03:32.730Z,44.29
2019-05-29T18:06:06.068Z,44.31
2019-05-29T18:08:39.405Z,44.35
2019-05-29T18:11:12.821Z,44.28
2019-05-29T18:13:45.479Z,44.31
2019-05-29T18:16:19.404Z,44.36
2019-05-29T18:18:52.904Z,44.36
2019-05-29T18:21:25.897Z,44.39
2019-05-29T18:23:59.474Z,44.30
2019-05-29T18:26:46.291Z,44.45
2019-05-29T18:29:07.208Z,44.31
2019-05-29T18:31:40.557Z,44.10
2019-05-29T18:34:14.093Z,44.14
2019-05-29T18:36:47.363Z,44.16
2019-05-29T18:39:20.741Z,44.39
2019-05-29T18:41:53.834Z,44.47
2019-05-29T18:44:27.259Z,44.50
2019-05-29T18:47:00.593Z,44.70
2019-05-29T18:49:34.930Z,44.78
2019-05-29T18:52:08.346Z,44.77
2019-05-29T18:54:42.118Z,44.65
2019-05-29T18:57:16.204Z,44.72
2019-05-29T18:59:49.169Z,44.73
2019-05-29T19:02:23.318Z,44.83
2019-05-29T19:04:56.600Z,44.84
2019-05-29T19:07:30.166Z,44.86
2019-05-29T19:10:06.778Z,44.94
2019-05-29T19:12:39.422Z,44.88
2019-05-29T19:15:12.893Z,44.87
2019-05-29T19:17:46.418Z,44.98
2019-05-29T19:20:19.761Z,45.02
2019-05-29T19:22:53.382Z,45.13
2019-05-29T19:25:26.813Z,45.09
2019-05-29T19:28:00.306Z,45.04
2019-05-29T19:30:33.304Z,45.12
2019-05-29T19:33:06.506Z,45.24
2019-05-29T19:35:39.845Z,45.38
2019-05-29T19:38:12.959Z,45.32
2019-05-29T19:40:47.369Z,45.24
2019-05-29T19:43:20.088Z,45.40
2019-05-29T19:45:53.417Z,45.40
2019-05-29T19:48:26.895Z,45.55
2019-05-29T19:51:00.114Z,45.51
2019-05-29T19:53:35.652Z,45.48
2019-05-29T19:56:09.102Z,45.59
2019-05-29T19:58:42.218Z,45.68
2019-05-29T20:01:30.201Z,45.70
2019-05-29T20:03:49.534Z,45.63
2019-05-29T20:06:23.379Z,45.83
2019-05-29T20:08:56.723Z,45.86
2019-05-29T20:11:31.546Z,45.86
2019-05-29T20:14:07.564Z,45.86
2019-05-29T20:16:39.940Z,45.83
2019-05-29T20:19:13.351Z,45.92
2019-05-29T20:21:46.080Z,46.11
2019-05-29T20:24:19.273Z,46.27
2019-05-29T20:26:52.316Z,46.32
2019-05-29T20:29:25.582Z,46.41
2019-05-29T20:31:59.070Z,46.42
2019-05-29T20:34:32.774Z,46.35
2019-05-29T20:37:06.180Z,46.50
2019-05-29T20:39:39.437Z,46.61
2019-05-29T20:42:12.776Z,46.92
2019-05-29T20:44:46.045Z,46.89
2019-05-29T20:47:19.432Z,47.16
2019-05-29T20:49:52.979Z,47.23
2019-05-29T20:52:26.157Z,47.14
2019-05-29T20:55:00.343Z,47.16
2019-05-29T20:57:33.856Z,47.66
2019-05-29T21:00:10.772Z,47.78
2019-05-29T21:02:44.072Z,47.88
2019-05-29T21:05:17.457Z,48.33
2019-05-29T21:07:50.645Z,48.30
2019-05-29T21:10:24.002Z,48.03
2019-05-29T21:12:57.441Z,48.10
2019-05-29T21:15:30.707Z,48.21
2019-05-29T21:18:04.317Z,48.56
2019-05-29T21:20:38.358Z,49.06
2019-05-29T21:23:11.533Z,49.11
2019-05-29T21:25:45.026Z,48.63
2019-05-29T21:28:18.438Z,47.97
2019-05-29T21:30:51.703Z,48.11
2019-05-29T21:33:25.034Z,47.91
2019-05-29T21:35:58.281Z,47.75
2019-05-29T21:38:31.723Z,47.84
2019-05-29T21:41:05.584Z,47.64
2019-05-29T21:43:38.921Z,47.59
2019-05-29T21:46:12.181Z,47.50
2019-05-29T21:48:45.520Z,47.40
2019-05-29T21:51:18.838Z,47.40
2019-05-29T21:53:52.138Z,47.42
2019-05-29T21:56:25.369Z,47.53
2019-05-29T21:59:03.876Z,47.43
2019-05-29T22:01:34.155Z,47.44
2019-05-29T22:04:07.119Z,47.46
2019-05-29T22:06:40.499Z,47.59
2019-05-29T22:09:15.108Z,47.71
2019-05-29T22:11:47.721Z,47.88
2019-05-29T22:14:21.848Z,47.79
2019-05-29T22:16:57.123Z,47.79
2019-05-29T22:19:30.437Z,48.03
2019-05-29T22:22:03.940Z,48.15
2019-05-29T22:24:37.587Z,48.08
2019-05-29T22:27:10.770Z,48.18
2019-05-29T22:29:44.137Z,48.33
2019-05-29T22:32:17.541Z,48.32
2019-05-29T22:34:52.076Z,48.58
2019-05-29T22:37:25.947Z,48.67
2019-05-29T22:39:59.731Z,48.75
2019-05-29T22:42:33.444Z,48.79
2019-05-29T22:45:07.771Z,48.69
2019-05-29T22:47:40.994Z,48.65
2019-05-29T22:50:14.898Z,48.81
2019-05-29T22:52:48.360Z,48.79
2019-05-29T22:55:21.414Z,48.83
2019-05-29T22:57:55.845Z,49.02
2019-05-29T23:00:28.839Z,49.01
2019-05-29T23:03:02.487Z,49.03
2019-05-29T23:05:35.980Z,49.41
2019-05-29T23:08:09.110Z,49.73
2019-05-29T23:10:42.572Z,50.01
2019-05-29T23:13:16.097Z,50.22
2019-05-29T23:15:49.632Z,50.38
2019-05-29T23:18:22.889Z,50.41
2019-05-29T23:20:56.379Z,50.40
2019-05-29T23:23:29.349Z,50.56
2019-05-29T23:26:03.055Z,50.69
2019-05-29T23:28:36.486Z,50.83
2019-05-29T23:31:10.022Z,50.91
2019-05-29T23:33:43.387Z,50.97
2019-05-29T23:36:16.919Z,51.09
2019-05-29T23:38:50.376Z,51.33
2019-05-29T23:41:24.829Z,51.22
2019-05-29T23:43:59.299Z,51.20
2019-05-29T23:46:32.334Z,51.26
2019-05-29T23:49:05.965Z,51.25
2019-05-29T23:51:39.250Z,51.06
2019-05-29T23:54:12.510Z,51.20
2019-05-29T23:56:45.982Z,51.38
2019-05-29T23:59:19.209Z,51.55
